Time,TemperatureF,DewpointF,PressureIn,WindDirection,WindDirectionDegrees,WindSpeedMPH,WindSpeedGustMPH,Humidity,HourlyPrecipIn,Conditions,Clouds,dailyrainin,SoftwareType,DateUTC
2013-03-24 00:03:00,43.0,42.0,29.79,South,179,9.0,-999.0,97,-99.99,,,-99.99,,2013-03-24 04:03:00,
2013-03-24 00:13:00,43.0,42.0,29.79,South,179,9.0,-999.0,97,-99.99,,,-99.99,,2013-03-24 04:13:00,
2013-03-24 00:23:00,42.0,41.0,29.79,SE,125,9.0,-999.0,97,-99.99,,,-99.99,,2013-03-24 04:23:00,
2013-03-24 00:33:00,42.0,41.0,29.79,SE,125,9.0,-999.0,97,-99.99,,,-99.99,,2013-03-24 04:33:00,
2013-03-24 00:43:00,42.0,41.0,29.79,SE,125,9.0,-999.0,97,-99.99,,,-99.99,,2013-03-24 04:43:00,
2013-03-24 00:53:00,42.0,41.0,29.79,South,177,8.0,-999.0,97,-99.99,,,-99.99,,2013-03-24 04:53:00,
2013-03-24 01:02:00,42.0,41.0,29.79,South,177,8.0,-999.0,97,-99.99,,,-99.99,,2013-03-24 05:02:00,
2013-03-24 01:13:00,42.0,41.0,29.79,South,177,8.0,-999.0,97,-99.99,,,-99.99,,2013-03-24 05:13:00,
2013-03-24 01:23:00,42.0,41.0,29.78,SSE,147,7.0,-999.0,97,-99.99,,,-99.99,,2013-03-24 05:23:00,
2013-03-24 01:32:00,42.0,41.0,29.78,SSE,147,7.0,-999.0,97,-99.99,,,-99.99,,2013-03-24 05:32:00,
2013-03-24 01:43:00,42.0,41.0,29.78,SSE,147,7.0,-999.0,97,-99.99,,,-99.99,,2013-03-24 05:43:00,
2013-03-24 01:52:00,42.0,41.0,29.78,SSE,147,7.0,-999.0,97,-99.99,,,-99.99,,2013-03-24 05:52:00,
2013-03-24 02:02:00,42.0,41.0,29.78,SSE,147,7.0,-999.0,97,-99.99,,,-99.99,,2013-03-24 06:02:00,
2013-03-24 02:22:00,42.0,41.0,29.77,SSW,204,4.0,-999.0,98,-99.99,,,-99.99,,2013-03-24 06:22:00,
2013-03-24 02:32:00,42.0,41.0,29.77,SSW,204,4.0,-999.0,98,-99.99,,,-99.99,,2013-03-24 06:32:00,
2013-03-24 02:42:00,42.0,41.0,29.77,SSW,204,4.0,-999.0,98,-99.99,,,-99.99,,2013-03-24 06:42:00,
2013-03-24 02:52:00,43.0,42.0,29.81,SE,143,1.0,-999.0,98,-99.99,,,-99.99,,2013-03-24 06:52:00,
2013-03-24 03:02:00,43.0,42.0,29.81,SE,143,1.0,-999.0,98,-99.99,,,-99.99,,2013-03-24 07:02:00,
2013-03-24 03:12:00,43.0,42.0,29.81,SE,143,1.0,-999.0,98,-99.99,,,-99.99,,2013-03-24 07:12:00,
2013-03-24 03:22:00,43.0,42.0,29.77,South,189,4.0,-999.0,98,-99.99,,,-99.99,,2013-03-24 07:22:00,
2013-03-24 03:32:00,43.0,42.0,29.77,South,189,4.0,-999.0,98,-99.99,,,-99.99,,2013-03-24 07:32:00,
2013-03-24 03:42:00,43.0,42.0,29.77,South,189,4.0,-999.0,98,-99.99,,,-99.99,,2013-03-24 07:42:00,
2013-03-24 03:52:00,43.0,42.0,29.77,South,189,4.0,-999.0,98,-99.99,,,-99.99,,2013-03-24 07:52:00,
2013-03-24 04:03:00,43.0,42.0,29.77,South,189,4.0,-999.0,98,-99.99,,,-99.99,,2013-03-24 08:03:00,
2013-03-24 04:22:00,44.0,43.0,29.68,East,97,4.0,-999.0,98,-99.99,,,-99.99,,2013-03-24 08:22:00,
2013-03-24 04:32:00,44.0,43.0,29.68,East,97,4.0,-999.0,98,-99.99,,,-99.99,,2013-03-24 08:32:00,
2013-03-24 04:33:00,43.0,42.0,29.63,SW,225,7.0,-999.0,98,-99.99,,,-99.99,,2013-03-24 08:33:00,
2013-03-24 04:42:00,44.0,43.0,29.68,East,97,4.0,-999.0,98,-99.99,,,-99.99,,2013-03-24 08:42:00,
2013-03-24 04:52:00,43.0,42.0,29.63,SW,225,7.0,-999.0,98,-99.99,,,-99.99,,2013-03-24 08:52:00,
2013-03-24 05:02:00,43.0,42.0,29.63,SW,225,7.0,-999.0,98,-99.99,,,-99.99,,2013-03-24 09:02:00,
2013-03-24 05:12:00,43.0,42.0,29.63,SW,225,7.0,-999.0,98,-99.99,,,-99.99,,2013-03-24 09:12:00,
2013-03-24 05:22:00,43.0,42.0,29.63,SW,225,7.0,-999.0,98,-99.99,,,-99.99,,2013-03-24 09:22:00,
2013-03-24 05:53:00,43.0,42.0,29.60,SE,125,7.0,-999.0,98,-99.99,,,-99.99,,2013-03-24 09:53:00,
2013-03-24 06:03:00,43.0,42.0,29.60,SE,125,7.0,-999.0,98,-99.99,,,-99.99,,2013-03-24 10:03:00,
2013-03-24 06:12:00,43.0,42.0,29.60,SE,125,7.0,-999.0,98,-99.99,,,-99.99,,2013-03-24 10:12:00,
2013-03-24 06:23:00,43.0,42.0,29.60,ESE,103,10.0,-999.0,98,-99.99,,,-99.99,,2013-03-24 10:23:00,
2013-03-24 06:33:00,43.0,42.0,29.60,ESE,103,10.0,-999.0,98,-99.99,,,-99.99,,2013-03-24 10:33:00,
2013-03-24 06:42:00,43.0,42.0,29.60,ESE,103,10.0,-999.0,98,-99.99,,,-99.99,,2013-03-24 10:42:00,
2013-03-24 06:52:00,44.0,43.0,29.69,ESE,108,3.0,-999.0,98,-99.99,,,-99.99,,2013-03-24 10:52:00,
2013-03-24 07:03:00,44.0,43.0,29.69,ESE,108,3.0,-999.0,98,-99.99,,,-99.99,,2013-03-24 11:03:00,
2013-03-24 07:12:00,44.0,43.0,29.69,ESE,108,3.0,-999.0,98,-99.99,,,-99.99,,2013-03-24 11:12:00,
2013-03-24 07:22:00,44.0,43.0,29.65,East,87,4.0,-999.0,98,-99.99,,,-99.99,,2013-03-24 11:22:00,
2013-03-24 07:33:00,44.0,43.0,29.65,East,87,4.0,-999.0,98,-99.99,,,-99.99,,2013-03-24 11:33:00,
2013-03-24 07:42:00,44.0,43.0,29.65,East,87,4.0,-999.0,98,-99.99,,,-99.99,,2013-03-24 11:42:00,
2013-03-24 07:52:00,44.0,43.0,29.64,NNW,348,7.0,-999.0,98,-99.99,,,-99.99,,2013-03-24 11:52:00,
2013-03-24 08:03:00,44.0,43.0,29.64,NNW,348,7.0,-999.0,98,-99.99,,,-99.99,,2013-03-24 12:03:00,
2013-03-24 08:12:00,44.0,43.0,29.64,NNW,348,7.0,-999.0,98,-99.99,,,-99.99,,2013-03-24 12:12:00,
2013-03-24 08:22:00,44.0,43.0,29.64,NNW,348,7.0,-999.0,98,-99.99,,,-99.99,,2013-03-24 12:22:00,
2013-03-24 08:32:00,44.0,43.0,29.64,NNW,348,7.0,-999.0,98,-99.99,,,-99.99,,2013-03-24 12:32:00,
2013-03-24 08:52:00,43.0,42.0,29.62,SE,143,7.0,-999.0,98,-99.99,,,-99.99,,2013-03-24 12:52:00,
2013-03-24 09:02:00,43.0,42.0,29.62,SE,143,7.0,-999.0,98,-99.99,,,-99.99,,2013-03-24 13:02:00,
2013-03-24 09:13:00,43.0,42.0,29.62,SE,143,7.0,-999.0,98,-99.99,,,-99.99,,2013-03-24 13:13:00,
2013-03-24 09:22:00,43.0,42.0,29.63,East,100,7.0,-999.0,98,-99.99,,,-99.99,,2013-03-24 13:22:00,
2013-03-24 09:32:00,43.0,42.0,29.63,East,100,7.0,-999.0,98,-99.99,,,-99.99,,2013-03-24 13:32:00,
2013-03-24 09:43:00,43.0,42.0,29.63,East,100,7.0,-999.0,98,-99.99,,,-99.99,,2013-03-24 13:43:00,
2013-03-24 09:52:00,43.0,42.0,29.63,East,100,7.0,-999.0,98,-99.99,,,-99.99,,2013-03-24 13:52:00,
2013-03-24 10:02:00,43.0,42.0,29.63,East,100,7.0,-999.0,98,-99.99,,,-99.99,,2013-03-24 14:02:00,
2013-03-24 10:22:00,42.0,41.0,29.64,ESE,112,7.0,-999.0,98,-99.99,,,-99.99,,2013-03-24 14:22:00,
2013-03-24 10:33:00,42.0,41.0,29.64,ESE,112,7.0,-999.0,98,-99.99,,,-99.99,,2013-03-24 14:33:00,
2013-03-24 10:43:00,42.0,41.0,29.64,ESE,112,7.0,-999.0,98,-99.99,,,-99.99,,2013-03-24 14:43:00,
2013-03-24 10:53:00,42.0,41.0,29.64,SE,125,7.0,-999.0,98,-99.99,,,-99.99,,2013-03-24 14:53:00,
2013-03-24 11:02:00,42.0,41.0,29.64,SE,125,7.0,-999.0,98,-99.99,,,-99.99,,2013-03-24 15:02:00,
2013-03-24 11:12:00,42.0,41.0,29.64,SE,125,7.0,-999.0,98,-99.99,,,-99.99,,2013-03-24 15:12:00,
2013-03-24 11:22:00,42.0,41.0,29.66,ENE,58,4.0,-999.0,98,-99.99,,,-99.99,,2013-03-24 15:22:00,
2013-03-24 11:33:00,42.0,41.0,29.66,ENE,58,4.0,-999.0,98,-99.99,,,-99.99,,2013-03-24 15:33:00,
2013-03-24 11:43:00,42.0,41.0,29.66,ENE,58,4.0,-999.0,98,-99.99,,,-99.99,,2013-03-24 15:43:00,
2013-03-24 11:53:00,42.0,41.0,29.67,SSE,149,4.0,-999.0,98,-99.99,,,-99.99,,2013-03-24 15:53:00,
2013-03-24 12:03:00,42.0,41.0,29.67,SSE,149,4.0,-999.0,98,-99.99,,,-99.99,,2013-03-24 16:03:00,
2013-03-24 12:13:00,42.0,41.0,29.67,SSE,149,4.0,-999.0,98,-99.99,,,-99.99,,2013-03-24 16:13:00,
2013-03-24 12:23:00,43.0,42.0,29.65,East,88,6.0,-999.0,98,-99.99,,,-99.99,,2013-03-24 16:23:00,
2013-03-24 12:33:00,43.0,42.0,29.65,East,88,6.0,-999.0,98,-99.99,,,-99.99,,2013-03-24 16:33:00,
2013-03-24 12:43:00,43.0,42.0,29.65,East,88,6.0,-999.0,98,-99.99,,,-99.99,,2013-03-24 16:43:00,
2013-03-24 12:52:00,43.0,42.0,29.62,ESE,102,6.0,-999.0,98,-99.99,,,-99.99,,2013-03-24 16:52:00,
2013-03-24 13:02:00,43.0,42.0,29.62,ESE,102,6.0,-999.0,98,-99.99,,,-99.99,,2013-03-24 17:02:00,
2013-03-24 13:12:00,43.0,42.0,29.62,ESE,102,6.0,-999.0,98,-99.99,,,-99.99,,2013-03-24 17:12:00,
2013-03-24 13:23:00,43.0,42.0,29.62,NE,45,6.0,-999.0,98,-99.99,,,-99.99,,2013-03-24 17:23:00,
2013-03-24 13:33:00,43.0,42.0,29.62,NE,45,6.0,-999.0,98,-99.99,,,-99.99,,2013-03-24 17:33:00,
2013-03-24 13:43:00,43.0,42.0,29.62,NE,45,6.0,-999.0,98,-99.99,,,-99.99,,2013-03-24 17:43:00,
2013-03-24 13:53:00,43.0,42.0,29.61,SE,127,5.0,-999.0,98,-99.99,,,-99.99,,2013-03-24 17:53:00,
2013-03-24 14:03:00,43.0,42.0,29.61,SE,127,5.0,-999.0,98,-99.99,,,-99.99,,2013-03-24 18:03:00,
2013-03-24 14:12:00,43.0,42.0,29.61,SE,127,5.0,-999.0,98,-99.99,,,-99.99,,2013-03-24 18:12:00,
2013-03-24 14:22:00,43.0,42.0,29.61,SE,127,5.0,-999.0,98,-99.99,,,-99.99,,2013-03-24 18:22:00,
2013-03-24 14:32:00,43.0,42.0,29.61,SE,127,5.0,-999.0,98,-99.99,,,-99.99,,2013-03-24 18:32:00,
2013-03-24 15:23:00,43.0,42.0,29.60,East,92,4.0,-999.0,98,-99.99,,,-99.99,,2013-03-24 19:23:00,
2013-03-24 15:32:00,43.0,42.0,29.60,East,92,4.0,-999.0,98,-99.99,,,-99.99,,2013-03-24 19:32:00,
2013-03-24 15:43:00,43.0,42.0,29.60,East,92,4.0,-999.0,98,-99.99,,,-99.99,,2013-03-24 19:43:00,
2013-03-24 15:53:00,43.0,42.0,29.59,ESE,112,4.0,-999.0,98,-99.99,,,-99.99,,2013-03-24 19:53:00,
2013-03-24 16:03:00,43.0,42.0,29.59,ESE,112,4.0,-999.0,98,-99.99,,,-99.99,,2013-03-24 20:03:00,
2013-03-24 16:12:00,43.0,42.0,29.59,ESE,112,4.0,-999.0,98,-99.99,,,-99.99,,2013-03-24 20:12:00,
2013-03-24 16:22:00,43.0,42.0,29.58,ESE,120,2.0,-999.0,98,-99.99,,,-99.99,,2013-03-24 20:22:00,
2013-03-24 16:32:00,43.0,42.0,29.58,ESE,120,2.0,-999.0,98,-99.99,,,-99.99,,2013-03-24 20:32:00,
2013-03-24 16:43:00,43.0,42.0,29.58,ESE,120,2.0,-999.0,98,-99.99,,,-99.99,,2013-03-24 20:43:00,
2013-03-24 16:53:00,44.0,43.0,29.58,SSE,165,3.0,-999.0,98,-99.99,,,-99.99,,2013-03-24 20:53:00,
2013-03-24 17:02:00,44.0,43.0,29.58,SSE,165,3.0,-999.0,98,-99.99,,,-99.99,,2013-03-24 21:02:00,
2013-03-24 17:12:00,44.0,43.0,29.58,SSE,165,3.0,-999.0,98,-99.99,,,-99.99,,2013-03-24 21:12:00,
2013-03-24 17:22:00,44.0,43.0,29.56,ESE,110,3.0,-999.0,98,-99.99,,,-99.99,,2013-03-24 21:22:00,
2013-03-24 17:33:00,44.0,43.0,29.56,ESE,110,3.0,-999.0,98,-99.99,,,-99.99,,2013-03-24 21:33:00,
2013-03-24 17:43:00,44.0,43.0,29.56,ESE,110,3.0,-999.0,98,-99.99,,,-99.99,,2013-03-24 21:43:00,
2013-03-24 17:53:00,44.0,43.0,29.56,ESE,110,3.0,-999.0,98,-99.99,,,-99.99,,2013-03-24 21:53:00,
2013-03-24 18:03:00,44.0,43.0,29.56,ESE,110,3.0,-999.0,98,-99.99,,,-99.99,,2013-03-24 22:03:00,
2013-03-24 18:23:00,43.0,42.0,29.54,SSW,206,4.0,-999.0,98,-99.99,,,-99.99,,2013-03-24 22:23:00,
2013-03-24 18:33:00,43.0,42.0,29.54,SSW,206,4.0,-999.0,98,-99.99,,,-99.99,,2013-03-24 22:33:00,
2013-03-24 18:43:00,43.0,42.0,29.54,SSW,206,4.0,-999.0,98,-99.99,,,-99.99,,2013-03-24 22:43:00,
2013-03-24 18:53:00,43.0,42.0,29.54,SSW,206,4.0,-999.0,98,-99.99,,,-99.99,,2013-03-24 22:53:00,
2013-03-24 19:23:00,45.0,45.0,29.54,WSW,244,3.0,-999.0,99,-99.99,,,-99.99,,2013-03-24 23:23:00,
2013-03-24 19:32:00,45.0,45.0,29.54,WSW,244,3.0,-999.0,99,-99.99,,,-99.99,,2013-03-24 23:32:00,
2013-03-24 19:42:00,45.0,45.0,29.54,WSW,244,3.0,-999.0,99,-99.99,,,-99.99,,2013-03-24 23:42:00,
2013-03-24 19:53:00,43.0,42.0,29.57,West,264,7.0,-999.0,98,-99.99,,,-99.99,,2013-03-24 23:53:00,
2013-03-24 20:02:00,43.0,42.0,29.57,West,264,7.0,-999.0,98,-99.99,,,-99.99,,2013-03-25 00:02:00,
2013-03-24 20:12:00,43.0,42.0,29.57,West,264,7.0,-999.0,98,-99.99,,,-99.99,,2013-03-25 00:12:00,
2013-03-24 20:22:00,44.0,43.0,29.58,West,266,8.0,-999.0,98,-99.99,,,-99.99,,2013-03-25 00:22:00,
2013-03-24 20:32:00,44.0,43.0,29.58,West,266,8.0,-999.0,98,-99.99,,,-99.99,,2013-03-25 00:32:00,
2013-03-24 20:43:00,44.0,43.0,29.58,West,266,8.0,-999.0,98,-99.99,,,-99.99,,2013-03-25 00:43:00,
2013-03-24 20:53:00,44.0,43.0,29.58,West,266,8.0,-999.0,98,-99.99,,,-99.99,,2013-03-25 00:53:00,
2013-03-24 21:02:00,44.0,43.0,29.58,West,266,8.0,-999.0,98,-99.99,,,-99.99,,2013-03-25 01:02:00,
2013-03-24 21:22:00,41.0,40.0,29.60,West,270,7.0,-999.0,98,-99.99,,,-99.99,,2013-03-25 01:22:00,
2013-03-24 21:32:00,41.0,40.0,29.60,West,270,7.0,-999.0,98,-99.99,,,-99.99,,2013-03-25 01:32:00,
2013-03-24 21:42:00,41.0,40.0,29.60,West,270,7.0,-999.0,98,-99.99,,,-99.99,,2013-03-25 01:42:00,
2013-03-24 21:53:00,41.0,40.0,29.60,WSW,252,8.0,-999.0,98,-99.99,,,-99.99,,2013-03-25 01:53:00,
2013-03-24 22:02:00,41.0,40.0,29.60,WSW,252,8.0,-999.0,98,-99.99,,,-99.99,,2013-03-25 02:02:00,
2013-03-24 22:12:00,41.0,40.0,29.60,WSW,252,8.0,-999.0,98,-99.99,,,-99.99,,2013-03-25 02:12:00,
2013-03-24 22:22:00,39.0,38.0,29.62,West,268,11.0,-999.0,95,-99.99,,,-99.99,,2013-03-25 02:22:00,
2013-03-24 22:33:00,39.0,38.0,29.62,West,268,11.0,-999.0,95,-99.99,,,-99.99,,2013-03-25 02:33:00,
2013-03-24 22:43:00,39.0,38.0,29.62,West,268,11.0,-999.0,95,-99.99,,,-99.99,,2013-03-25 02:43:00,
2013-03-24 22:52:00,36.0,32.0,29.64,WSW,254,11.0,-999.0,86,-99.99,,,-99.99,,2013-03-25 02:52:00,
2013-03-24 23:02:00,36.0,32.0,29.64,WSW,254,11.0,-999.0,86,-99.99,,,-99.99,,2013-03-25 03:02:00,
2013-03-24 23:13:00,36.0,32.0,29.64,WSW,254,11.0,-999.0,86,-99.99,,,-99.99,,2013-03-25 03:13:00,
2013-03-24 23:23:00,36.0,32.0,29.64,WSW,254,11.0,-999.0,86,-99.99,,,-99.99,,2013-03-25 03:23:00,